createdAt,value
2023-03-17T00:02:01.872Z,-23330.88
2023-03-17T00:04:06.206Z,-23334.41
2023-03-17T00:06:16.083Z,-23332.00
2023-03-17T00:08:23.038Z,-23332.16
2023-03-17T00:10:26.894Z,-23328.66
2023-03-17T00:12:30.042Z,-23329.31
2023-03-17T00:14:32.668Z,-23329.31
2023-03-17T00:16:38.967Z,-23327.22
2023-03-17T00:18:41.610Z,-23328.66
2023-03-17T00:20:47.665Z,-23329.47
2023-03-17T00:22:51.065Z,-23328.66
2023-03-17T00:24:53.740Z,-23327.72
2023-03-17T00:26:56.341Z,-23326.44
2023-03-17T00:28:58.948Z,-23328.34
2023-03-17T00:31:07.661Z,-23326.28
2023-03-17T00:33:12.414Z,-23331.69
2023-03-17T00:35:21.770Z,-23332.97
2023-03-17T00:37:25.790Z,-23329.78
2023-03-17T00:39:28.429Z,-23335.50
2023-03-17T00:41:31.073Z,-23330.88
2023-03-17T00:43:33.670Z,-23330.25
2023-03-17T00:45:36.876Z,-23328.66
2023-03-17T00:47:40.239Z,-23329.63
2023-03-17T00:49:42.906Z,-23329.31
2023-03-17T00:51:46.329Z,-23328.97
2023-03-17T00:53:50.369Z,-23328.19
2023-03-17T00:55:53.068Z,-23329.94
2023-03-17T00:57:55.620Z,-23327.56
2023-03-17T00:59:58.277Z,-23327.56
2023-03-17T01:02:01.000Z,-23329.16
2023-03-17T01:04:04.213Z,-23327.56
2023-03-17T01:06:09.416Z,-23325.63
2023-03-17T01:08:12.154Z,-23325.81
2023-03-17T01:10:19.304Z,-23324.84
2023-03-17T01:12:21.990Z,-23322.78
2023-03-17T01:14:25.731Z,-23322.63
2023-03-17T01:16:28.972Z,-23321.66
2023-03-17T01:18:31.711Z,-23323.25
2023-03-17T01:20:35.527Z,-23324.53
2023-03-17T01:22:38.246Z,-23323.91
2023-03-17T01:24:41.130Z,-23320.53
2023-03-17T01:26:45.194Z,-23321.34
2023-03-17T01:28:47.791Z,-23321.34
2023-03-17T01:30:51.031Z,-23321.03
2023-03-17T01:32:54.099Z,-23318.97
2023-03-17T01:34:56.926Z,-23320.53
2023-03-17T01:37:00.032Z,-23320.06
2023-03-17T01:39:03.432Z,-23319.28
2023-03-17T01:41:06.377Z,-23319.44
2023-03-17T01:43:20.794Z,-23318.63
2023-03-17T01:46:01.020Z,-23319.59
2023-03-17T01:48:03.708Z,-23318.47
2023-03-17T01:50:09.842Z,-23317.38
2023-03-17T01:52:16.463Z,-23317.53
2023-03-17T01:54:24.243Z,-23318.97
2023-03-17T01:56:27.046Z,-23319.28
2023-03-17T01:58:33.397Z,-23321.34
2023-03-17T02:00:36.347Z,-23322.63
2023-03-17T02:02:41.818Z,-23326.13
2023-03-17T02:04:44.477Z,-23324.84
2023-03-17T02:06:57.367Z,-23324.22
2023-03-17T02:09:01.715Z,-23321.03
2023-03-17T02:11:05.346Z,-23320.38
2023-03-17T02:13:11.582Z,-23320.38
2023-03-17T02:15:15.682Z,-23320.38
2023-03-17T02:17:19.029Z,-23317.69
2023-03-17T02:19:21.911Z,-23316.72
2023-03-17T02:21:45.174Z,-23318.16
2023-03-17T02:23:47.801Z,-23316.56
2023-03-17T02:25:52.774Z,-23316.88
2023-03-17T02:28:00.224Z,-23319.44
2023-03-17T02:30:03.005Z,-23318.78
2023-03-17T02:32:06.744Z,-23321.03
2023-03-17T02:34:09.359Z,-23316.88
2023-03-17T02:36:11.979Z,-23315.59
2023-03-17T02:38:15.923Z,-23314.97
2023-03-17T02:40:18.984Z,-23315.44
2023-03-17T02:42:22.038Z,-23316.56
2023-03-17T02:44:24.845Z,-23315.59
2023-03-17T02:46:27.681Z,-23313.84
2023-03-17T02:48:30.615Z,-23315.28
2023-03-17T02:50:33.555Z,-23318.47
2023-03-17T02:52:36.525Z,-23318.47
2023-03-17T02:54:40.676Z,-23319.44
2023-03-17T02:56:43.351Z,-23315.44
2023-03-17T02:58:46.362Z,-23312.09
2023-03-17T03:00:49.673Z,-23317.69
2023-03-17T03:02:52.765Z,-23314.97
2023-03-17T03:04:56.410Z,-23313.69
2023-03-17T03:06:59.494Z,-23316.09
2023-03-17T03:09:02.058Z,-23317.19
2023-03-17T03:11:06.256Z,-23314.03
2023-03-17T03:13:07.940Z,-23314.97
2023-03-17T03:15:11.535Z,-23316.56
2023-03-17T03:17:14.207Z,-23319.59
2023-03-17T03:19:17.441Z,-23320.38
2023-03-17T03:21:20.115Z,-23321.03
2023-03-17T03:23:23.179Z,-23322.13
2023-03-17T03:25:25.826Z,-23317.53
2023-03-17T03:27:29.832Z,-23316.56
2023-03-17T03:29:32.426Z,-23315.59
2023-03-17T03:31:35.062Z,-23319.75
2023-03-17T03:33:37.666Z,-23316.88
2023-03-17T03:35:40.913Z,-23318.63
2023-03-17T03:37:43.525Z,-23313.84
2023-03-17T03:39:46.117Z,-23310.84
2023-03-17T03:41:48.771Z,-23315.28
2023-03-17T03:43:53.117Z,-23316.25
2023-03-17T03:45:55.779Z,-23315.28
2023-03-17T03:47:58.386Z,-23307.81
2023-03-17T03:50:01.042Z,-23307.31
2023-03-17T03:52:03.664Z,-23307.66
2023-03-17T03:54:06.325Z,-23307.16
2023-03-17T03:56:09.234Z,-23307.00
2023-03-17T03:58:11.801Z,-23305.25
2023-03-17T04:00:17.748Z,-23307.31
2023-03-17T04:02:20.472Z,-23305.91
2023-03-17T04:04:23.478Z,-23303.03
2023-03-17T04:06:26.203Z,-23302.88
2023-03-17T04:08:28.815Z,-23304.47
2023-03-17T04:10:31.848Z,-23303.66
2023-03-17T04:12:34.654Z,-23307.81
2023-03-17T04:14:37.665Z,-23308.13
2023-03-17T04:16:43.616Z,-23307.97
2023-03-17T04:18:46.334Z,-23302.88
2023-03-17T04:20:49.086Z,-23300.31
2023-03-17T04:22:51.771Z,-23299.03
2023-03-17T04:24:54.405Z,-23299.38
2023-03-17T04:26:57.499Z,-23300.31
2023-03-17T04:29:00.157Z,-23299.38
2023-03-17T04:31:02.750Z,-23300.00
2023-03-17T04:33:07.136Z,-23298.09
2023-03-17T04:35:13.873Z,-23298.72
2023-03-17T04:37:16.663Z,-23298.88
2023-03-17T04:39:19.260Z,-23297.63
2023-03-17T04:41:22.222Z,-23296.34
2023-03-17T04:43:24.911Z,-23296.19
2023-03-17T04:45:27.544Z,-23294.59
2023-03-17T04:47:30.194Z,-23294.91
2023-03-17T04:49:34.403Z,-23294.91
2023-03-17T04:51:37.624Z,-23293.16
2023-03-17T04:53:40.376Z,-23292.53
2023-03-17T04:55:42.985Z,-23292.03
2023-03-17T04:57:45.889Z,-23293.31
2023-03-17T04:59:48.534Z,-23293.00
2023-03-17T05:01:51.285Z,-23293.31
2023-03-17T05:03:56.131Z,-23292.34
2023-03-17T05:06:00.473Z,-23291.72
2023-03-17T05:08:03.295Z,-23291.56
2023-03-17T05:10:06.654Z,-23288.69
2023-03-17T05:12:10.424Z,-23288.22
2023-03-17T05:14:13.313Z,-23287.25
2023-03-17T05:16:16.335Z,-23286.63
2023-03-17T05:18:19.807Z,-23285.03
2023-03-17T05:20:22.535Z,-23284.38
2023-03-17T05:22:27.153Z,-23286.31
2023-03-17T05:24:29.712Z,-23284.38
2023-03-17T05:26:32.281Z,-23285.34
2023-03-17T05:28:35.121Z,-23285.66
2023-03-17T05:30:37.830Z,-23285.34
2023-03-17T05:32:40.539Z,-23285.66
2023-03-17T05:34:43.194Z,-23287.25
2023-03-17T05:36:46.359Z,-23283.91
2023-03-17T05:38:50.561Z,-23282.31
2023-03-17T05:40:53.548Z,-23280.25
2023-03-17T05:42:56.784Z,-23280.41
2023-03-17T05:44:59.435Z,-23283.28
2023-03-17T05:47:02.111Z,-23284.38
2023-03-17T05:49:04.710Z,-23287.25
2023-03-17T05:51:07.417Z,-23289.31
2023-03-17T05:53:10.569Z,-23291.25
2023-03-17T05:55:14.606Z,-23292.19
2023-03-17T05:57:17.253Z,-23294.28
2023-03-17T05:59:20.000Z,-23295.22
2023-03-17T06:01:22.565Z,-23299.03
2023-03-17T06:03:25.410Z,-23299.84
2023-03-17T06:05:28.167Z,-23303.50
2023-03-17T06:07:41.364Z,-23302.56
2023-03-17T06:09:53.054Z,-23305.09
2023-03-17T06:11:57.653Z,-23305.75
2023-03-17T06:14:00.312Z,-23309.25
2023-03-17T06:16:03.089Z,-23312.09
2023-03-17T06:18:06.378Z,-23313.69
2023-03-17T06:20:10.310Z,-23318.00
2023-03-17T06:22:13.277Z,-23320.72
2023-03-17T06:24:16.107Z,-23327.06
2023-03-17T06:26:18.766Z,-23329.31
2023-03-17T06:28:23.100Z,-23333.44
2023-03-17T06:30:25.716Z,-23333.75
2023-03-17T06:32:28.421Z,-23334.06
2023-03-17T06:34:31.409Z,-23336.94
2023-03-17T06:36:35.216Z,-23336.94
2023-03-17T06:38:39.235Z,-23341.06
2023-03-17T06:40:41.838Z,-23338.22
2023-03-17T06:42:44.521Z,-23339.81
2023-03-17T06:44:48.532Z,-23344.91
2023-03-17T06:46:51.356Z,-23351.59
2023-03-17T06:48:54.113Z,-23350.47
2023-03-17T06:50:57.152Z,-23354.59
2023-03-17T06:52:59.709Z,-23359.38
2023-03-17T06:55:02.308Z,-23364.94
2023-03-17T06:57:05.057Z,-23374.81
2023-03-17T06:59:07.750Z,-23378.94
2023-03-17T07:01:12.062Z,-23382.75
2023-03-17T07:03:14.701Z,-23387.69
2023-03-17T07:05:17.899Z,-23391.50
2023-03-17T07:07:20.819Z,-23396.72
2023-03-17T07:09:23.484Z,-23402.13
2023-03-17T07:11:26.235Z,-23398.97
2023-03-17T07:13:28.898Z,-23402.44
2023-03-17T07:15:34.888Z,-23406.41
2023-03-17T07:17:39.348Z,-23411.34
2023-03-17T07:19:42.318Z,-23416.75
2023-03-17T07:21:46.905Z,-23428.66
2023-03-17T07:23:49.688Z,-23432.00
2023-03-17T07:25:52.540Z,-23438.03
2023-03-17T07:27:55.129Z,-23429.63
2023-03-17T07:29:57.790Z,-23426.28
2023-03-17T07:32:00.479Z,-23422.63
2023-03-17T07:34:04.661Z,-23436.44
2023-03-17T07:36:09.007Z,-23440.88
2023-03-17T07:38:12.170Z,-23438.81
2023-03-17T07:40:15.137Z,-23449.94
2023-03-17T07:42:18.420Z,-23452.63
2023-03-17T07:44:21.106Z,-23452.94
2023-03-17T07:46:24.004Z,-23453.56
2023-03-17T07:48:26.780Z,-23461.03
2023-03-17T07:50:30.915Z,-23464.84
2023-03-17T07:52:34.249Z,-23461.81
2023-03-17T07:54:37.569Z,-23472.75
2023-03-17T07:56:41.100Z,-23481.47
2023-03-17T07:58:43.783Z,-23486.09
2023-03-17T08:00:46.492Z,-23500.66
2023-03-17T08:03:03.225Z,-23488.94
2023-03-17T08:05:12.051Z,-23482.13
2023-03-17T08:07:16.047Z,-23489.09
2023-03-17T08:09:18.693Z,-23511.91
2023-03-17T08:11:21.973Z,-23513.19
2023-03-17T08:13:24.615Z,-23517.28
2023-03-17T08:15:27.414Z,-23509.06
2023-03-17T08:17:30.060Z,-23513.50
2023-03-17T08:19:32.750Z,-23521.88
2023-03-17T08:21:35.369Z,-23563.50
2023-03-17T08:23:39.471Z,-23558.28
2023-03-17T08:25:42.591Z,-23556.53
2023-03-17T08:27:45.227Z,-23536.94
2023-03-17T08:29:48.560Z,-23545.94
2023-03-17T08:31:51.355Z,-23532.97
2023-03-17T08:33:56.969Z,-23529.00
2023-03-17T08:36:00.245Z,-23516.66
2023-03-17T08:38:02.990Z,-23529.34
2023-03-17T08:40:10.011Z,-23542.31
2023-03-17T08:42:12.895Z,-23548.63
2023-03-17T08:44:16.577Z,-23560.34
2023-03-17T08:46:21.846Z,-23558.91
2023-03-17T08:48:24.906Z,-23571.72
2023-03-17T08:50:27.785Z,-23570.78
2023-03-17T08:52:30.560Z,-23603.03
2023-03-17T08:54:35.749Z,-23615.19
2023-03-17T08:56:41.929Z,-23557.81
2023-03-17T08:58:44.771Z,-23572.84
2023-03-17T09:00:48.922Z,-23568.41
2023-03-17T09:02:51.699Z,-23580.28
2023-03-17T09:04:54.459Z,-23574.56
2023-03-17T09:07:04.791Z,-23588.00
2023-03-17T09:09:07.642Z,-23584.69
2023-03-17T09:11:10.654Z,-23601.59
2023-03-17T09:13:14.965Z,-23641.53
2023-03-17T09:15:17.643Z,-23639.97
2023-03-17T09:17:20.391Z,-23654.94
2023-03-17T09:19:23.754Z,-23664.88
2023-03-17T09:21:27.303Z,-23699.72
2023-03-17T09:23:30.200Z,-23683.16
2023-03-17T09:25:32.856Z,-23672.91
2023-03-17T09:27:36.308Z,-23662.84
2023-03-17T09:29:40.526Z,-23660.94
2023-03-17T09:31:43.787Z,-23640.91
2023-03-17T09:33:47.345Z,-23660.47
2023-03-17T09:35:52.631Z,-23649.75
2023-03-17T09:37:55.585Z,-23622.91
2023-03-17T09:39:58.921Z,-23601.44
2023-03-17T09:42:21.392Z,-23602.06
2023-03-17T09:44:38.586Z,-23608.69
2023-03-17T09:46:54.616Z,-23602.41
2023-03-17T09:49:02.387Z,-23607.44
2023-03-17T09:51:10.155Z,-23608.38
2023-03-17T09:53:18.910Z,-23624.19
2023-03-17T09:55:28.380Z,-23644.06
2023-03-17T09:57:34.201Z,-23675.59
2023-03-17T09:59:40.505Z,-23690.41
2023-03-17T10:01:44.649Z,-23718.13
2023-03-17T10:03:47.741Z,-23732.59
2023-03-17T10:05:50.499Z,-23725.84
2023-03-17T10:08:04.295Z,-23804.25
2023-03-17T10:10:15.481Z,-23830.91
2023-03-17T10:12:28.887Z,-23796.41
2023-03-17T10:14:42.183Z,-23751.94
2023-03-17T10:16:53.956Z,-23686.63
2023-03-17T10:19:01.724Z,-23698.44
2023-03-17T10:21:07.610Z,-23745.03
2023-03-17T10:23:15.002Z,-23714.66
2023-03-17T10:25:20.298Z,-23697.97
2023-03-17T10:27:23.059Z,-23688.34
2023-03-17T10:29:26.116Z,-23668.34
2023-03-17T10:31:32.592Z,-23674.50
2023-03-17T10:33:36.634Z,-23711.03
2023-03-17T10:35:40.556Z,-23676.69
2023-03-17T10:37:44.171Z,-23733.69
2023-03-17T10:39:49.152Z,-23749.59
2023-03-17T10:41:58.132Z,-23718.28
2023-03-17T10:44:00.853Z,-23749.91
2023-03-17T10:46:05.778Z,-23754.00
2023-03-17T10:48:10.590Z,-23754.63
2023-03-17T10:50:24.557Z,-23714.97
2023-03-17T10:52:30.127Z,-23720.00
2023-03-17T10:54:36.686Z,-23736.69
2023-03-17T10:56:42.419Z,-23740.63
2023-03-17T10:58:49.153Z,-23734.50
2023-03-17T11:00:57.207Z,-23758.06
2023-03-17T11:03:00.952Z,-23729.63
2023-03-17T11:05:06.655Z,-23708.38
2023-03-17T11:07:17.727Z,-23720.97
2023-03-17T11:09:21.548Z,-23696.72
2023-03-17T11:11:27.082Z,-23703.00
2023-03-17T11:13:31.244Z,-23697.66
2023-03-17T11:15:36.170Z,-23697.81
2023-03-17T11:17:43.578Z,-23683.94
2023-03-17T11:19:55.681Z,-23692.00
2023-03-17T11:22:06.248Z,-23682.22
2023-03-17T11:24:15.077Z,-23689.00
2023-03-17T11:26:33.015Z,-23686.31
2023-03-17T11:28:41.011Z,-23680.78
2023-03-17T11:30:52.242Z,-23694.81
2023-03-17T11:32:58.702Z,-23695.63
2023-03-17T11:35:08.782Z,-23692.00
2023-03-17T11:37:22.684Z,-23712.16
2023-03-17T11:39:29.130Z,-23702.38
2023-03-17T11:42:07.252Z,-23696.88
2023-03-17T11:44:41.677Z,-23703.00
2023-03-17T11:46:52.214Z,-23718.59
2023-03-17T11:49:02.808Z,-23716.22
2023-03-17T11:51:20.130Z,-23712.47
2023-03-17T11:53:44.799Z,-23728.50
2023-03-17T11:55:54.485Z,-23732.91
2023-03-17T11:58:01.002Z,-23721.75
2023-03-17T12:00:06.066Z,-23726.63
2023-03-17T12:02:21.593Z,-23714.50
2023-03-17T12:04:34.227Z,-23710.56
2023-03-17T12:06:43.541Z,-23736.69
2023-03-17T12:08:52.554Z,-23741.72
2023-03-17T12:11:01.020Z,-23745.19
2023-03-17T12:13:09.146Z,-23731.34
2023-03-17T12:15:18.735Z,-23731.34
2023-03-17T12:17:26.894Z,-23716.72
2023-03-17T12:19:37.911Z,-23728.19
2023-03-17T12:21:45.895Z,-23750.84
2023-03-17T12:23:50.019Z,-23758.53
2023-03-17T12:26:00.277Z,-23754.47
2023-03-17T12:28:08.502Z,-23768.13
2023-03-17T12:30:25.072Z,-23754.31
2023-03-17T12:32:36.739Z,-23764.22
2023-03-17T12:34:46.177Z,-23764.69
2023-03-17T12:36:49.800Z,-23761.69
2023-03-17T12:38:57.049Z,-23744.25
2023-03-17T12:41:34.159Z,-23756.66
2023-03-17T12:43:42.592Z,-23763.41
2023-03-17T12:45:59.703Z,-23760.28
2023-03-17T12:48:32.564Z,-23774.41
2023-03-17T12:51:08.430Z,-23765.63
2023-03-17T12:53:26.712Z,-23762.63
2023-03-17T12:55:33.679Z,-23766.25
2023-03-17T12:57:41.858Z,-23773.78
2023-03-17T12:59:46.893Z,-23774.56
2023-03-17T13:01:58.151Z,-23751.00
2023-03-17T13:04:14.467Z,-23770.34
2023-03-17T13:06:22.449Z,-23778.50
2023-03-17T13:08:30.814Z,-23758.38
2023-03-17T13:10:42.901Z,-23767.19
2023-03-17T13:13:25.359Z,-23753.69
2023-03-17T13:15:49.209Z,-23770.00
2023-03-17T13:17:52.582Z,-23744.09
2023-03-17T13:19:58.266Z,-23763.41
2023-03-17T13:22:33.623Z,-23772.69
2023-03-17T13:24:50.975Z,-23777.09
2023-03-17T13:27:00.841Z,-23770.81
2023-03-17T13:29:25.158Z,-23773.00
2023-03-17T13:31:36.545Z,-23769.06
2023-03-17T13:33:45.632Z,-23772.84
2023-03-17T13:36:06.563Z,-23777.88
2023-03-17T13:38:38.307Z,-23775.19
2023-03-17T13:40:59.050Z,-23771.59
2023-03-17T13:43:15.371Z,-23775.66
2023-03-17T13:45:27.176Z,-23774.72
2023-03-17T13:47:35.473Z,-23777.72
2023-03-17T13:49:38.372Z,-23775.19
2023-03-17T13:51:52.792Z,-23778.19
2023-03-17T13:54:10.650Z,-23768.28
2023-03-17T13:56:27.854Z,-23782.44
2023-03-17T13:58:35.169Z,-23781.00
2023-03-17T14:00:41.425Z,-23772.06
2023-03-17T14:02:45.226Z,-23786.34
2023-03-17T14:04:54.474Z,-23782.59
2023-03-17T14:07:00.851Z,-23793.72
2023-03-17T14:09:10.393Z,-23786.66
2023-03-17T14:11:22.541Z,-23779.91
2023-03-17T14:13:28.442Z,-23767.66
2023-03-17T14:15:40.706Z,-23782.44
2023-03-17T14:17:47.537Z,-23776.31
2023-03-17T14:20:08.147Z,-23777.56
2023-03-17T14:22:22.541Z,-23770.00
2023-03-17T14:24:29.620Z,-23785.72
2023-03-17T14:26:33.913Z,-23781.34
2023-03-17T14:28:36.903Z,-23782.59
2023-03-17T14:30:39.775Z,-23784.47
2023-03-17T14:32:49.049Z,-23783.22
2023-03-17T14:34:56.117Z,-23774.41
2023-03-17T14:37:02.163Z,-23782.44
2023-03-17T14:39:05.115Z,-23775.66
2023-03-17T14:41:17.306Z,-23774.88
2023-03-17T14:43:19.958Z,-23783.22
2023-03-17T14:45:29.806Z,-23763.75
2023-03-17T14:47:38.808Z,-23765.78
2023-03-17T14:49:43.045Z,-23780.88
2023-03-17T14:51:46.343Z,-23779.28
2023-03-17T14:53:49.350Z,-23779.13
2023-03-17T14:55:53.765Z,-23774.56
2023-03-17T14:57:56.512Z,-23764.84
2023-03-17T15:00:00.751Z,-23769.53
2023-03-17T15:02:16.728Z,-23770.34
2023-03-17T15:04:22.809Z,-23774.72
2023-03-17T15:06:29.597Z,-23769.69
2023-03-17T15:08:46.284Z,-23764.50
2023-03-17T15:10:49.088Z,-23760.59
2023-03-17T15:13:01.741Z,-23766.25
2023-03-17T15:15:07.554Z,-23770.97
2023-03-17T15:17:19.306Z,-23771.75
2023-03-17T15:19:27.645Z,-23776.31
2023-03-17T15:21:39.046Z,-23765.31
2023-03-17T15:23:41.762Z,-23763.41
2023-03-17T15:25:47.225Z,-23759.50
2023-03-17T15:27:50.175Z,-23762.78
2023-03-17T15:29:52.931Z,-23756.50
2023-03-17T15:32:02.398Z,-23759.34
2023-03-17T15:34:05.364Z,-23756.50
2023-03-17T15:36:14.462Z,-23754.47
2023-03-17T15:38:21.514Z,-23749.59
2023-03-17T15:40:24.302Z,-23750.38
2023-03-17T15:42:30.418Z,-23751.78
2023-03-17T15:44:33.078Z,-23758.72
2023-03-17T15:46:36.788Z,-23752.09
2023-03-17T15:48:39.539Z,-23749.75
2023-03-17T15:50:42.414Z,-23748.66
2023-03-17T15:52:46.175Z,-23748.16
2023-03-17T15:54:50.403Z,-23741.09
2023-03-17T15:56:53.049Z,-23743.59
2023-03-17T15:58:55.678Z,-23742.34
2023-03-17T16:00:59.664Z,-23742.34
2023-03-17T16:03:09.598Z,-23739.84
2023-03-17T16:05:17.640Z,-23740.16
2023-03-17T16:07:21.173Z,-23740.16
2023-03-17T16:09:23.846Z,-23745.50
2023-03-17T16:11:31.532Z,-23744.41
2023-03-17T16:13:34.363Z,-23743.91
2023-03-17T16:15:39.450Z,-23744.88
2023-03-17T16:17:42.800Z,-23742.50
2023-03-17T16:19:45.846Z,-23732.91
2023-03-17T16:21:49.360Z,-23733.56
2023-03-17T16:23:52.085Z,-23730.09
2023-03-17T16:26:04.586Z,-23729.78
2023-03-17T16:28:18.192Z,-23725.38
2023-03-17T16:30:22.930Z,-23723.63
2023-03-17T16:32:25.695Z,-23721.59
2023-03-17T16:34:28.388Z,-23722.53
2023-03-17T16:36:30.995Z,-23722.84
2023-03-17T16:38:35.086Z,-23721.28
2023-03-17T16:40:39.358Z,-23721.44
2023-03-17T16:42:42.812Z,-23717.97
2023-03-17T16:44:46.980Z,-23714.97
2023-03-17T16:46:49.763Z,-23709.94
2023-03-17T16:48:52.544Z,-23705.53
2023-03-17T16:50:55.667Z,-23702.06
2023-03-17T16:52:59.396Z,-23700.19
2023-03-17T16:55:02.078Z,-23695.78
2023-03-17T16:57:07.588Z,-23692.94
2023-03-17T16:59:20.362Z,-23689.78
2023-03-17T17:01:28.138Z,-23694.50
2023-03-17T17:03:31.400Z,-23695.16
2023-03-17T17:05:34.344Z,-23692.63
2023-03-17T17:07:36.961Z,-23688.53
2023-03-17T17:09:39.619Z,-23685.38
2023-03-17T17:11:42.292Z,-23681.44
2023-03-17T17:13:46.822Z,-23678.13
2023-03-17T17:15:50.181Z,-23677.19
2023-03-17T17:17:57.693Z,-23674.34
2023-03-17T17:20:01.917Z,-23674.03
2023-03-17T17:22:04.734Z,-23673.56
2023-03-17T17:24:07.650Z,-23676.56
2023-03-17T17:26:10.757Z,-23679.06
2023-03-17T17:28:15.273Z,-23674.97
2023-03-17T17:30:20.204Z,-23669.94
2023-03-17T17:32:23.737Z,-23668.03
2023-03-17T17:34:27.724Z,-23664.09
2023-03-17T17:36:31.085Z,-23673.22
2023-03-17T17:38:33.751Z,-23672.75
2023-03-17T17:40:37.343Z,-23662.03
2023-03-17T17:42:40.843Z,-23662.22
2023-03-17T17:44:43.768Z,-23657.78
2023-03-17T17:46:46.676Z,-23655.41
2023-03-17T17:48:50.058Z,-23659.06
2023-03-17T17:50:55.381Z,-23661.88
2023-03-17T17:53:04.825Z,-23666.78
2023-03-17T17:55:08.019Z,-23660.94
2023-03-17T17:57:11.904Z,-23660.47
2023-03-17T17:59:14.757Z,-23656.69
2023-03-17T18:01:21.792Z,-23655.75
2023-03-17T18:03:25.274Z,-23657.00
2023-03-17T18:05:28.076Z,-23657.31
2023-03-17T18:07:32.292Z,-23658.25
2023-03-17T18:09:34.903Z,-23653.38
2023-03-17T18:11:38.543Z,-23658.75
2023-03-17T18:13:41.224Z,-23651.47
2023-03-17T18:15:44.113Z,-23651.94
2023-03-17T18:17:47.010Z,-23649.44
2023-03-17T18:19:50.013Z,-23648.00
2023-03-17T18:21:52.875Z,-23647.84
2023-03-17T18:23:57.103Z,-23650.06
2023-03-17T18:26:01.072Z,-23653.22
2023-03-17T18:28:04.003Z,-23648.78
2023-03-17T18:30:10.434Z,-23648.63
2023-03-17T18:32:14.349Z,-23649.75
2023-03-17T18:34:20.772Z,-23643.44
2023-03-17T18:36:23.854Z,-23643.75
2023-03-17T18:38:28.590Z,-23640.28
2023-03-17T18:40:32.558Z,-23640.28
2023-03-17T18:42:35.274Z,-23641.06
2023-03-17T18:44:39.939Z,-23640.91
2023-03-17T18:46:42.721Z,-23642.97
2023-03-17T18:48:45.410Z,-23651.16
2023-03-17T18:50:48.097Z,-23647.06
2023-03-17T18:52:51.343Z,-23645.66
2023-03-17T18:54:53.967Z,-23646.59
2023-03-17T18:56:58.053Z,-23642.31
2023-03-17T18:59:01.070Z,-23641.22
2023-03-17T19:01:03.855Z,-23642.47
2023-03-17T19:03:06.981Z,-23642.47
2023-03-17T19:05:11.479Z,-23645.97
2023-03-17T19:07:14.454Z,-23640.91
2023-03-17T19:09:17.050Z,-23641.06
2023-03-17T19:11:21.576Z,-23638.53
2023-03-17T19:13:26.447Z,-23639.00
2023-03-17T19:15:29.144Z,-23642.16
2023-03-17T19:17:32.153Z,-23643.59
2023-03-17T19:19:35.309Z,-23645.16
2023-03-17T19:21:38.141Z,-23645.16
2023-03-17T19:23:41.587Z,-23643.59
2023-03-17T19:25:44.289Z,-23643.13
2023-03-17T19:27:46.965Z,-23641.22
2023-03-17T19:29:50.987Z,-23639.34
2023-03-17T19:31:53.629Z,-23636.97
2023-03-17T19:33:56.460Z,-23634.13
2023-03-17T19:36:00.296Z,-23636.66
2023-03-17T19:38:03.988Z,-23634.75
2023-03-17T19:40:09.531Z,-23636.19
2023-03-17T19:42:12.541Z,-23633.34
2023-03-17T19:44:15.494Z,-23632.38
2023-03-17T19:46:19.569Z,-23631.13
2023-03-17T19:48:22.642Z,-23632.69
2023-03-17T19:50:26.170Z,-23631.28
2023-03-17T19:52:28.998Z,-23628.91
2023-03-17T19:54:31.628Z,-23631.91
2023-03-17T19:56:34.329Z,-23629.38
2023-03-17T19:58:37.329Z,-23628.28
2023-03-17T20:00:42.123Z,-23624.19
2023-03-17T20:02:46.368Z,-23621.81
2023-03-17T20:04:50.033Z,-23618.50
2023-03-17T20:06:55.547Z,-23619.91
2023-03-17T20:08:58.796Z,-23622.44
2023-03-17T20:11:01.688Z,-23620.25
2023-03-17T20:13:04.375Z,-23621.81
2023-03-17T20:15:08.736Z,-23618.34
2023-03-17T20:17:12.030Z,-23614.72
2023-03-17T20:19:16.462Z,-23615.19
2023-03-17T20:21:19.138Z,-23614.38
2023-03-17T20:23:22.610Z,-23611.06
2023-03-17T20:25:25.556Z,-23609.97
2023-03-17T20:27:28.826Z,-23610.59
2023-03-17T20:29:31.581Z,-23611.38
2023-03-17T20:31:34.456Z,-23610.91
2023-03-17T20:33:37.140Z,-23609.03
2023-03-17T20:35:43.095Z,-23608.69
2023-03-17T20:37:46.053Z,-23606.97
2023-03-17T20:39:48.760Z,-23607.44
2023-03-17T20:41:52.338Z,-23607.44
2023-03-17T20:43:54.968Z,-23607.44
2023-03-17T20:45:57.614Z,-23607.91
2023-03-17T20:48:00.849Z,-23602.69
2023-03-17T20:50:06.165Z,-23606.97
2023-03-17T20:52:13.091Z,-23603.81
2023-03-17T20:54:15.802Z,-23603.34
2023-03-17T20:56:20.760Z,-23602.53
2023-03-17T20:58:23.564Z,-23598.91
2023-03-17T21:00:26.733Z,-23600.81
2023-03-17T21:02:29.463Z,-23595.91
2023-03-17T21:04:32.229Z,-23597.50
2023-03-17T21:06:35.164Z,-23592.91
2023-03-17T21:08:39.627Z,-23595.13
2023-03-17T21:10:42.365Z,-23593.22
2023-03-17T21:12:45.112Z,-23589.13
2023-03-17T21:14:48.993Z,-23593.84
2023-03-17T21:16:51.775Z,-23597.34
2023-03-17T21:18:54.925Z,-23592.59
2023-03-17T21:20:57.796Z,-23591.34
2023-03-17T21:23:00.411Z,-23589.91
2023-03-17T21:25:04.641Z,-23592.44
2023-03-17T21:27:11.076Z,-23591.97
2023-03-17T21:29:13.720Z,-23590.69
2023-03-17T21:31:17.312Z,-23586.28
2023-03-17T21:33:21.409Z,-23584.69
2023-03-17T21:35:25.043Z,-23585.31
2023-03-17T21:37:27.914Z,-23585.00
2023-03-17T21:39:30.566Z,-23582.47
2023-03-17T21:41:37.060Z,-23580.59
2023-03-17T21:43:40.342Z,-23580.28
2023-03-17T21:45:44.156Z,-23583.59
2023-03-17T21:47:46.993Z,-23580.91
2023-03-17T21:49:49.711Z,-23577.72
2023-03-17T21:51:52.566Z,-23578.69
2023-03-17T21:53:55.234Z,-23576.31
2023-03-17T21:55:57.915Z,-23576.00
2023-03-17T21:58:02.373Z,-23578.06
2023-03-17T22:00:06.213Z,-23576.63
2023-03-17T22:02:12.335Z,-23573.47
2023-03-17T22:04:15.470Z,-23570.63
2023-03-17T22:06:18.791Z,-23568.88
2023-03-17T22:08:21.706Z,-23565.09
2023-03-17T22:10:24.363Z,-23567.94
2023-03-17T22:12:27.065Z,-23567.31
2023-03-17T22:14:31.258Z,-23568.56
2023-03-17T22:16:34.082Z,-23570.47
2023-03-17T22:18:37.359Z,-23570.31
2023-03-17T22:20:40.102Z,-23568.56
2023-03-17T22:22:42.742Z,-23570.78
2023-03-17T22:24:45.527Z,-23573.63
2023-03-17T22:26:49.071Z,-23575.22
2023-03-17T22:28:51.934Z,-23573.31
2023-03-17T22:30:56.030Z,-23581.06
2023-03-17T22:32:58.793Z,-23578.53
2023-03-17T22:35:01.519Z,-23578.06
2023-03-17T22:37:04.981Z,-23578.69
2023-03-17T22:39:08.899Z,-23577.72
2023-03-17T22:41:14.375Z,-23577.41
2023-03-17T22:43:17.093Z,-23577.72
2023-03-17T22:45:19.809Z,-23575.69
2023-03-17T22:47:23.829Z,-23572.53
2023-03-17T22:49:26.569Z,-23571.72
2023-03-17T22:51:29.314Z,-23570.16
2023-03-17T22:53:32.925Z,-23570.78
2023-03-17T22:55:36.401Z,-23575.53
2023-03-17T22:57:39.204Z,-23574.56
2023-03-17T22:59:41.888Z,-23571.09
2023-03-17T23:01:45.780Z,-23564.47
2023-03-17T23:03:50.093Z,-23566.03
2023-03-17T23:05:57.054Z,-23567.94
2023-03-17T23:07:59.766Z,-23569.50
2023-03-17T23:10:04.326Z,-23566.34
2023-03-17T23:12:07.992Z,-23562.41
2023-03-17T23:14:11.471Z,-23561.44
2023-03-17T23:16:14.554Z,-23559.06
2023-03-17T23:18:17.788Z,-23560.34
2023-03-17T23:20:21.790Z,-23559.22
2023-03-17T23:22:24.659Z,-23558.75
2023-03-17T23:24:27.362Z,-23557.66
2023-03-17T23:26:30.112Z,-23559.41
2023-03-17T23:28:32.946Z,-23558.75
2023-03-17T23:30:37.060Z,-23560.50
2023-03-17T23:32:40.573Z,-23564.28
2023-03-17T23:34:43.282Z,-23564.78
2023-03-17T23:36:47.333Z,-23566.97
2023-03-17T23:38:50.352Z,-23566.66
2023-03-17T23:40:56.603Z,-23561.44
2023-03-17T23:42:59.746Z,-23564.47
2023-03-17T23:45:02.510Z,-23559.41
2023-03-17T23:47:05.273Z,-23560.97
2023-03-17T23:49:08.336Z,-23565.56
2023-03-17T23:51:12.357Z,-23565.56